sensor_id;sensor_type;location;lat;lon;timestamp;temperature;humidity
5304;DHT22;2674;49.722;10.892;2024-03-08T00:00:18;1.40;99.90
5304;DHT22;2674;49.722;10.892;2024-03-08T00:02:48;1.30;99.90
5304;DHT22;2674;49.722;10.892;2024-03-08T00:05:16;1.30;99.90
5304;DHT22;2674;49.722;10.892;2024-03-08T00:07:43;1.30;99.90
5304;DHT22;2674;49.722;10.892;2024-03-08T00:10:11;1.30;99.90
5304;DHT22;2674;49.722;10.892;2024-03-08T00:12:38;1.30;99.90
5304;DHT22;2674;49.722;10.892;2024-03-08T00:15:04;1.30;99.90
5304;DHT22;2674;49.722;10.892;2024-03-08T00:17:31;1.30;99.90
5304;DHT22;2674;49.722;10.892;2024-03-08T00:19:57;1.30;99.90
5304;DHT22;2674;49.722;10.892;2024-03-08T00:22:23;1.30;99.90
5304;DHT22;2674;49.722;10.892;2024-03-08T00:24:49;1.30;99.90
5304;DHT22;2674;49.722;10.892;2024-03-08T00:27:17;1.30;99.90
5304;DHT22;2674;49.722;10.892;2024-03-08T00:29:46;1.30;99.90
5304;DHT22;2674;49.722;10.892;2024-03-08T00:32:12;1.40;99.90
5304;DHT22;2674;49.722;10.892;2024-03-08T00:34:38;1.40;99.90
5304;DHT22;2674;49.722;10.892;2024-03-08T00:37:05;1.40;99.90
5304;DHT22;2674;49.722;10.892;2024-03-08T00:39:31;1.30;99.90
5304;DHT22;2674;49.722;10.892;2024-03-08T00:41:57;1.30;99.90
5304;DHT22;2674;49.722;10.892;2024-03-08T00:44:23;1.30;99.90
5304;DHT22;2674;49.722;10.892;2024-03-08T00:46:50;1.20;99.90
5304;DHT22;2674;49.722;10.892;2024-03-08T00:49:19;1.20;99.90
5304;DHT22;2674;49.722;10.892;2024-03-08T00:51:45;1.20;99.90
5304;DHT22;2674;49.722;10.892;2024-03-08T00:54:11;1.20;99.90
5304;DHT22;2674;49.722;10.892;2024-03-08T00:56:37;1.30;99.90
5304;DHT22;2674;49.722;10.892;2024-03-08T00:59:04;1.20;99.90
5304;DHT22;2674;49.722;10.892;2024-03-08T01:01:30;1.30;99.90
5304;DHT22;2674;49.722;10.892;2024-03-08T01:03:56;1.30;99.90
5304;DHT22;2674;49.722;10.892;2024-03-08T01:06:22;1.30;99.90
5304;DHT22;2674;49.722;10.892;2024-03-08T01:08:48;1.30;99.90
5304;DHT22;2674;49.722;10.892;2024-03-08T01:11:17;1.30;99.90
5304;DHT22;2674;49.722;10.892;2024-03-08T01:13:43;1.30;99.90
5304;DHT22;2674;49.722;10.892;2024-03-08T01:16:09;1.30;99.90
5304;DHT22;2674;49.722;10.892;2024-03-08T01:18:35;1.20;99.90
5304;DHT22;2674;49.722;10.892;2024-03-08T01:21:01;1.20;99.90
5304;DHT22;2674;49.722;10.892;2024-03-08T01:23:27;1.20;99.90
5304;DHT22;2674;49.722;10.892;2024-03-08T01:25:55;1.20;99.90
5304;DHT22;2674;49.722;10.892;2024-03-08T01:28:23;1.20;99.90
5304;DHT22;2674;49.722;10.892;2024-03-08T01:30:50;1.20;99.90
5304;DHT22;2674;49.722;10.892;2024-03-08T01:33:22;1.30;99.90
5304;DHT22;2674;49.722;10.892;2024-03-08T01:35:48;1.20;99.90
5304;DHT22;2674;49.722;10.892;2024-03-08T01:38:14;0.90;99.90
5304;DHT22;2674;49.722;10.892;2024-03-08T01:40:40;1.10;99.90
5304;DHT22;2674;49.722;10.892;2024-03-08T01:43:21;1.10;99.90
5304;DHT22;2674;49.722;10.892;2024-03-08T01:45:48;1.10;99.90
5304;DHT22;2674;49.722;10.892;2024-03-08T01:48:15;1.10;99.90
5304;DHT22;2674;49.722;10.892;2024-03-08T01:50:42;1.10;99.90
5304;DHT22;2674;49.722;10.892;2024-03-08T01:53:09;1.10;99.90
5304;DHT22;2674;49.722;10.892;2024-03-08T01:55:36;1.00;99.90
5304;DHT22;2674;49.722;10.892;2024-03-08T01:58:04;1.10;99.90
5304;DHT22;2674;49.722;10.892;2024-03-08T02:00:34;1.10;99.90
5304;DHT22;2674;49.722;10.892;2024-03-08T02:03:01;1.10;99.90
5304;DHT22;2674;49.722;10.892;2024-03-08T02:05:27;1.10;99.90
5304;DHT22;2674;49.722;10.892;2024-03-08T02:07:54;1.10;99.90
5304;DHT22;2674;49.722;10.892;2024-03-08T02:10:20;1.00;99.90
5304;DHT22;2674;49.722;10.892;2024-03-08T02:12:47;1.00;99.90
5304;DHT22;2674;49.722;10.892;2024-03-08T02:15:14;1.00;99.90
5304;DHT22;2674;49.722;10.892;2024-03-08T02:17:40;1.00;99.90
5304;DHT22;2674;49.722;10.892;2024-03-08T02:20:07;0.90;99.90
5304;DHT22;2674;49.722;10.892;2024-03-08T02:22:34;0.80;99.90
5304;DHT22;2674;49.722;10.892;2024-03-08T02:25:02;0.80;99.90
5304;DHT22;2674;49.722;10.892;2024-03-08T02:27:29;0.80;99.90
5304;DHT22;2674;49.722;10.892;2024-03-08T02:29:56;0.70;99.90
5304;DHT22;2674;49.722;10.892;2024-03-08T02:32:23;0.80;99.90
5304;DHT22;2674;49.722;10.892;2024-03-08T02:34:49;0.80;99.90
5304;DHT22;2674;49.722;10.892;2024-03-08T02:37:16;0.80;99.90
5304;DHT22;2674;49.722;10.892;2024-03-08T02:39:41;0.80;99.90
5304;DHT22;2674;49.722;10.892;2024-03-08T02:42:07;0.80;99.90
5304;DHT22;2674;49.722;10.892;2024-03-08T02:44:33;0.70;99.90
5304;DHT22;2674;49.722;10.892;2024-03-08T02:46:59;0.70;99.90
5304;DHT22;2674;49.722;10.892;2024-03-08T02:49:26;0.70;99.90
5304;DHT22;2674;49.722;10.892;2024-03-08T02:51:54;0.60;99.90
5304;DHT22;2674;49.722;10.892;2024-03-08T02:54:22;0.60;99.90
5304;DHT22;2674;49.722;10.892;2024-03-08T02:56:49;0.70;99.90
5304;DHT22;2674;49.722;10.892;2024-03-08T02:59:18;0.60;99.90
5304;DHT22;2674;49.722;10.892;2024-03-08T03:01:44;0.70;99.90
5304;DHT22;2674;49.722;10.892;2024-03-08T03:04:10;0.70;99.90
5304;DHT22;2674;49.722;10.892;2024-03-08T03:06:36;0.70;99.90
5304;DHT22;2674;49.722;10.892;2024-03-08T03:09:02;0.70;99.90
5304;DHT22;2674;49.722;10.892;2024-03-08T03:11:28;0.70;99.90
5304;DHT22;2674;49.722;10.892;2024-03-08T03:13:54;0.80;99.90
5304;DHT22;2674;49.722;10.892;2024-03-08T03:16:21;0.70;99.90
5304;DHT22;2674;49.722;10.892;2024-03-08T03:18:47;0.80;99.90
5304;DHT22;2674;49.722;10.892;2024-03-08T03:21:13;0.70;99.90
5304;DHT22;2674;49.722;10.892;2024-03-08T03:23:40;0.70;99.90
5304;DHT22;2674;49.722;10.892;2024-03-08T03:26:06;0.70;99.90
5304;DHT22;2674;49.722;10.892;2024-03-08T03:28:38;0.60;99.90
5304;DHT22;2674;49.722;10.892;2024-03-08T03:31:07;0.60;99.90
5304;DHT22;2674;49.722;10.892;2024-03-08T03:33:33;0.60;99.90
5304;DHT22;2674;49.722;10.892;2024-03-08T03:36:03;0.50;99.90
5304;DHT22;2674;49.722;10.892;2024-03-08T03:38:30;0.50;99.90
5304;DHT22;2674;49.722;10.892;2024-03-08T03:40:56;0.50;99.90
5304;DHT22;2674;49.722;10.892;2024-03-08T03:43:29;0.60;99.90
5304;DHT22;2674;49.722;10.892;2024-03-08T03:45:55;0.50;99.90
5304;DHT22;2674;49.722;10.892;2024-03-08T03:48:21;0.50;99.90
5304;DHT22;2674;49.722;10.892;2024-03-08T03:50:47;0.50;99.90
5304;DHT22;2674;49.722;10.892;2024-03-08T03:53:12;0.50;99.90
5304;DHT22;2674;49.722;10.892;2024-03-08T03:55:38;0.40;99.90
5304;DHT22;2674;49.722;10.892;2024-03-08T03:58:04;0.40;99.90
5304;DHT22;2674;49.722;10.892;2024-03-08T04:00:30;0.40;99.90
5304;DHT22;2674;49.722;10.892;2024-03-08T04:02:56;0.40;99.90
5304;DHT22;2674;49.722;10.892;2024-03-08T04:05:24;0.40;99.90
5304;DHT22;2674;49.722;10.892;2024-03-08T04:07:50;0.40;99.90
5304;DHT22;2674;49.722;10.892;2024-03-08T04:10:16;0.30;99.90
5304;DHT22;2674;49.722;10.892;2024-03-08T04:12:42;0.20;99.90
5304;DHT22;2674;49.722;10.892;2024-03-08T04:15:08;0.20;99.90
5304;DHT22;2674;49.722;10.892;2024-03-08T04:17:36;0.20;99.90
5304;DHT22;2674;49.722;10.892;2024-03-08T04:20:03;0.20;99.90
5304;DHT22;2674;49.722;10.892;2024-03-08T04:22:36;0.10;99.90
5304;DHT22;2674;49.722;10.892;2024-03-08T04:25:03;0.10;99.90
5304;DHT22;2674;49.722;10.892;2024-03-08T04:27:29;0.10;99.90
5304;DHT22;2674;49.722;10.892;2024-03-08T04:29:54;0.20;99.90
5304;DHT22;2674;49.722;10.892;2024-03-08T04:32:20;0.20;99.90
5304;DHT22;2674;49.722;10.892;2024-03-08T04:34:46;0.30;99.90
5304;DHT22;2674;49.722;10.892;2024-03-08T04:37:12;0.30;99.90
5304;DHT22;2674;49.722;10.892;2024-03-08T04:39:39;0.30;99.90
5304;DHT22;2674;49.722;10.892;2024-03-08T04:42:05;0.30;99.90
5304;DHT22;2674;49.722;10.892;2024-03-08T04:44:36;0.30;99.90
5304;DHT22;2674;49.722;10.892;2024-03-08T04:47:05;0.40;99.90
5304;DHT22;2674;49.722;10.892;2024-03-08T04:49:32;0.40;99.90
5304;DHT22;2674;49.722;10.892;2024-03-08T04:52:01;0.40;99.90
5304;DHT22;2674;49.722;10.892;2024-03-08T04:54:28;0.40;99.90
5304;DHT22;2674;49.722;10.892;2024-03-08T04:56:54;0.50;99.90
5304;DHT22;2674;49.722;10.892;2024-03-08T04:59:19;0.50;99.90
5304;DHT22;2674;49.722;10.892;2024-03-08T05:01:45;0.50;99.90
5304;DHT22;2674;49.722;10.892;2024-03-08T05:04:11;0.50;99.90
5304;DHT22;2674;49.722;10.892;2024-03-08T05:06:37;0.40;99.90
5304;DHT22;2674;49.722;10.892;2024-03-08T05:09:03;0.50;99.90
5304;DHT22;2674;49.722;10.892;2024-03-08T05:11:39;0.40;99.90
5304;DHT22;2674;49.722;10.892;2024-03-08T05:14:05;0.50;99.90
5304;DHT22;2674;49.722;10.892;2024-03-08T05:16:31;0.40;99.90
5304;DHT22;2674;49.722;10.892;2024-03-08T05:18:57;0.40;99.90
5304;DHT22;2674;49.722;10.892;2024-03-08T05:21:23;0.40;99.90
5304;DHT22;2674;49.722;10.892;2024-03-08T05:23:49;0.40;99.90
5304;DHT22;2674;49.722;10.892;2024-03-08T05:26:16;0.50;99.90
5304;DHT22;2674;49.722;10.892;2024-03-08T05:28:42;0.50;99.90
5304;DHT22;2674;49.722;10.892;2024-03-08T05:31:08;0.50;99.90
5304;DHT22;2674;49.722;10.892;2024-03-08T05:33:34;0.50;99.90
5304;DHT22;2674;49.722;10.892;2024-03-08T05:36:00;0.50;99.90
5304;DHT22;2674;49.722;10.892;2024-03-08T05:38:29;0.50;99.90
5304;DHT22;2674;49.722;10.892;2024-03-08T05:40:55;0.40;99.90
5304;DHT22;2674;49.722;10.892;2024-03-08T05:43:21;0.40;99.90
5304;DHT22;2674;49.722;10.892;2024-03-08T05:45:46;0.40;99.90
5304;DHT22;2674;49.722;10.892;2024-03-08T05:48:13;0.40;99.90
5304;DHT22;2674;49.722;10.892;2024-03-08T05:50:39;0.40;99.90
5304;DHT22;2674;49.722;10.892;2024-03-08T05:53:05;0.40;99.90
5304;DHT22;2674;49.722;10.892;2024-03-08T05:55:34;0.40;99.90
5304;DHT22;2674;49.722;10.892;2024-03-08T05:58:02;0.40;99.90
5304;DHT22;2674;49.722;10.892;2024-03-08T06:00:28;0.40;99.90
5304;DHT22;2674;49.722;10.892;2024-03-08T06:02:56;0.30;99.90
5304;DHT22;2674;49.722;10.892;2024-03-08T06:05:24;0.30;99.90
5304;DHT22;2674;49.722;10.892;2024-03-08T06:07:50;0.30;99.90
5304;DHT22;2674;49.722;10.892;2024-03-08T06:10:19;0.30;99.90
5304;DHT22;2674;49.722;10.892;2024-03-08T06:12:45;0.30;99.90
5304;DHT22;2674;49.722;10.892;2024-03-08T06:15:11;0.40;99.90
5304;DHT22;2674;49.722;10.892;2024-03-08T06:17:46;0.30;99.90
5304;DHT22;2674;49.722;10.892;2024-03-08T06:20:12;0.40;99.90
5304;DHT22;2674;49.722;10.892;2024-03-08T06:22:39;0.30;99.90
5304;DHT22;2674;49.722;10.892;2024-03-08T06:25:08;0.30;99.90
5304;DHT22;2674;49.722;10.892;2024-03-08T06:27:36;0.30;99.90
5304;DHT22;2674;49.722;10.892;2024-03-08T06:30:02;0.30;99.90
5304;DHT22;2674;49.722;10.892;2024-03-08T06:32:30;0.40;99.90
5304;DHT22;2674;49.722;10.892;2024-03-08T06:34:56;0.40;99.90
5304;DHT22;2674;49.722;10.892;2024-03-08T06:37:22;0.50;99.90
5304;DHT22;2674;49.722;10.892;2024-03-08T06:39:49;0.50;99.90
5304;DHT22;2674;49.722;10.892;2024-03-08T06:42:17;0.60;99.90
5304;DHT22;2674;49.722;10.892;2024-03-08T06:44:42;0.60;99.90
5304;DHT22;2674;49.722;10.892;2024-03-08T06:47:15;0.60;99.90
5304;DHT22;2674;49.722;10.892;2024-03-08T06:49:42;0.70;99.90
5304;DHT22;2674;49.722;10.892;2024-03-08T06:52:12;0.70;99.90
5304;DHT22;2674;49.722;10.892;2024-03-08T06:54:38;0.80;99.90
5304;DHT22;2674;49.722;10.892;2024-03-08T06:57:04;0.90;99.90
5304;DHT22;2674;49.722;10.892;2024-03-08T06:59:33;0.90;99.90
5304;DHT22;2674;49.722;10.892;2024-03-08T07:02:04;1.00;99.90
5304;DHT22;2674;49.722;10.892;2024-03-08T07:04:30;1.10;99.90
5304;DHT22;2674;49.722;10.892;2024-03-08T07:06:57;1.10;99.90
5304;DHT22;2674;49.722;10.892;2024-03-08T07:09:23;1.20;99.90
5304;DHT22;2674;49.722;10.892;2024-03-08T07:11:50;1.20;99.90
5304;DHT22;2674;49.722;10.892;2024-03-08T07:14:23;1.30;99.90
5304;DHT22;2674;49.722;10.892;2024-03-08T07:16:50;1.30;99.90
5304;DHT22;2674;49.722;10.892;2024-03-08T07:19:17;1.40;99.90
5304;DHT22;2674;49.722;10.892;2024-03-08T07:21:43;1.50;99.90
5304;DHT22;2674;49.722;10.892;2024-03-08T07:24:13;1.60;99.90
5304;DHT22;2674;49.722;10.892;2024-03-08T07:26:43;1.70;99.90
5304;DHT22;2674;49.722;10.892;2024-03-08T07:29:09;1.80;99.90
5304;DHT22;2674;49.722;10.892;2024-03-08T07:31:34;1.90;99.90
5304;DHT22;2674;49.722;10.892;2024-03-08T07:34:20;2.00;99.90
5304;DHT22;2674;49.722;10.892;2024-03-08T07:36:46;2.10;99.90
5304;DHT22;2674;49.722;10.892;2024-03-08T07:39:12;2.20;99.90
5304;DHT22;2674;49.722;10.892;2024-03-08T07:41:39;2.20;99.90
5304;DHT22;2674;49.722;10.892;2024-03-08T07:44:08;2.30;99.90
5304;DHT22;2674;49.722;10.892;2024-03-08T07:46:34;2.40;99.90
5304;DHT22;2674;49.722;10.892;2024-03-08T07:49:01;2.50;99.90
5304;DHT22;2674;49.722;10.892;2024-03-08T07:51:28;2.60;99.90
5304;DHT22;2674;49.722;10.892;2024-03-08T07:53:54;2.70;99.90
5304;DHT22;2674;49.722;10.892;2024-03-08T07:56:20;2.70;99.90
5304;DHT22;2674;49.722;10.892;2024-03-08T07:58:47;2.80;99.90
5304;DHT22;2674;49.722;10.892;2024-03-08T08:01:17;2.90;99.90
5304;DHT22;2674;49.722;10.892;2024-03-08T08:03:44;2.90;99.90
5304;DHT22;2674;49.722;10.892;2024-03-08T08:06:09;3.00;99.90
5304;DHT22;2674;49.722;10.892;2024-03-08T08:08:38;3.10;99.90
5304;DHT22;2674;49.722;10.892;2024-03-08T08:11:03;3.20;99.90
5304;DHT22;2674;49.722;10.892;2024-03-08T08:13:35;3.20;99.90
5304;DHT22;2674;49.722;10.892;2024-03-08T08:16:02;3.30;99.90
5304;DHT22;2674;49.722;10.892;2024-03-08T08:18:29;3.40;99.90
5304;DHT22;2674;49.722;10.892;2024-03-08T08:20:55;3.50;99.90
5304;DHT22;2674;49.722;10.892;2024-03-08T08:23:21;3.60;99.90
5304;DHT22;2674;49.722;10.892;2024-03-08T08:25:47;3.60;99.90
5304;DHT22;2674;49.722;10.892;2024-03-08T08:28:17;3.70;99.90
5304;DHT22;2674;49.722;10.892;2024-03-08T08:30:46;3.90;99.90
5304;DHT22;2674;49.722;10.892;2024-03-08T08:33:11;3.90;99.90
5304;DHT22;2674;49.722;10.892;2024-03-08T08:35:38;4.00;99.90
5304;DHT22;2674;49.722;10.892;2024-03-08T08:38:04;4.10;99.90
5304;DHT22;2674;49.722;10.892;2024-03-08T08:40:30;4.20;99.90
5304;DHT22;2674;49.722;10.892;2024-03-08T08:42:59;4.30;99.90
5304;DHT22;2674;49.722;10.892;2024-03-08T08:45:25;4.40;99.90
5304;DHT22;2674;49.722;10.892;2024-03-08T08:47:52;4.40;99.90
5304;DHT22;2674;49.722;10.892;2024-03-08T08:50:18;4.50;99.90
5304;DHT22;2674;49.722;10.892;2024-03-08T08:52:49;4.60;99.90
5304;DHT22;2674;49.722;10.892;2024-03-08T08:55:18;4.80;99.90
5304;DHT22;2674;49.722;10.892;2024-03-08T08:57:47;4.90;95.60
5304;DHT22;2674;49.722;10.892;2024-03-08T09:00:20;4.90;92.90
5304;DHT22;2674;49.722;10.892;2024-03-08T09:02:47;5.00;57.20
5304;DHT22;2674;49.722;10.892;2024-03-08T09:05:14;5.00;51.20
5304;DHT22;2674;49.722;10.892;2024-03-08T09:07:43;5.10;43.50
5304;DHT22;2674;49.722;10.892;2024-03-08T09:10:12;5.20;37.50
5304;DHT22;2674;49.722;10.892;2024-03-08T09:12:39;5.20;25.60
5304;DHT22;2674;49.722;10.892;2024-03-08T09:15:06;5.30;15.10
5304;DHT22;2674;49.722;10.892;2024-03-08T09:17:34;5.30;23.70
5304;DHT22;2674;49.722;10.892;2024-03-08T09:20:00;5.40;40.40
5304;DHT22;2674;49.722;10.892;2024-03-08T09:22:26;5.50;27.80
5304;DHT22;2674;49.722;10.892;2024-03-08T09:24:52;5.60;27.20
5304;DHT22;2674;49.722;10.892;2024-03-08T09:27:17;5.60;14.10
5304;DHT22;2674;49.722;10.892;2024-03-08T09:29:43;5.80;22.20
5304;DHT22;2674;49.722;10.892;2024-03-08T09:32:10;5.80;24.60
5304;DHT22;2674;49.722;10.892;2024-03-08T09:34:37;5.80;14.50
5304;DHT22;2674;49.722;10.892;2024-03-08T09:37:03;5.90;15.50
5304;DHT22;2674;49.722;10.892;2024-03-08T09:39:30;6.00;4.70
5304;DHT22;2674;49.722;10.892;2024-03-08T09:41:56;6.10;1.00
5304;DHT22;2674;49.722;10.892;2024-03-08T09:44:22;6.10;6.80
5304;DHT22;2674;49.722;10.892;2024-03-08T09:46:49;6.10;1.00
5304;DHT22;2674;49.722;10.892;2024-03-08T09:49:25;6.10;34.40
5304;DHT22;2674;49.722;10.892;2024-03-08T09:51:50;6.20;46.60
5304;DHT22;2674;49.722;10.892;2024-03-08T09:54:17;6.30;56.30
5304;DHT22;2674;49.722;10.892;2024-03-08T09:56:47;6.40;61.10
5304;DHT22;2674;49.722;10.892;2024-03-08T09:59:14;6.50;47.50
5304;DHT22;2674;49.722;10.892;2024-03-08T10:01:48;6.60;55.30
5304;DHT22;2674;49.722;10.892;2024-03-08T10:04:14;6.60;59.30
5304;DHT22;2674;49.722;10.892;2024-03-08T10:06:42;6.70;73.20
5304;DHT22;2674;49.722;10.892;2024-03-08T10:09:09;6.80;56.10
5304;DHT22;2674;49.722;10.892;2024-03-08T10:11:36;6.80;60.40
5304;DHT22;2674;49.722;10.892;2024-03-08T10:14:01;6.80;61.80
5304;DHT22;2674;49.722;10.892;2024-03-08T10:16:28;6.80;57.30
5304;DHT22;2674;49.722;10.892;2024-03-08T10:18:56;6.80;63.90
5304;DHT22;2674;49.722;10.892;2024-03-08T10:21:22;7.00;60.10
5304;DHT22;2674;49.722;10.892;2024-03-08T10:23:48;7.00;68.00
5304;DHT22;2674;49.722;10.892;2024-03-08T10:26:15;7.10;63.10
5304;DHT22;2674;49.722;10.892;2024-03-08T10:28:42;7.20;63.50
5304;DHT22;2674;49.722;10.892;2024-03-08T10:31:09;7.30;71.40
5304;DHT22;2674;49.722;10.892;2024-03-08T10:33:35;7.40;81.10
5304;DHT22;2674;49.722;10.892;2024-03-08T10:36:01;7.60;85.30
5304;DHT22;2674;49.722;10.892;2024-03-08T10:38:31;7.70;83.70
5304;DHT22;2674;49.722;10.892;2024-03-08T10:40:59;7.80;98.60
5304;DHT22;2674;49.722;10.892;2024-03-08T10:43:27;8.00;99.10
5304;DHT22;2674;49.722;10.892;2024-03-08T10:46:14;8.20;99.90
5304;DHT22;2674;49.722;10.892;2024-03-08T10:48:44;8.20;99.90
5304;DHT22;2674;49.722;10.892;2024-03-08T10:51:11;8.30;99.90
5304;DHT22;2674;49.722;10.892;2024-03-08T10:53:38;8.40;99.90
5304;DHT22;2674;49.722;10.892;2024-03-08T10:56:07;8.50;99.90
5304;DHT22;2674;49.722;10.892;2024-03-08T10:58:36;8.60;99.90
5304;DHT22;2674;49.722;10.892;2024-03-08T11:01:02;8.60;99.90
5304;DHT22;2674;49.722;10.892;2024-03-08T11:06:30;8.70;99.90
5304;DHT22;2674;49.722;10.892;2024-03-08T11:08:57;8.80;99.90
5304;DHT22;2674;49.722;10.892;2024-03-08T11:13:53;8.80;99.90
5304;DHT22;2674;49.722;10.892;2024-03-08T11:19:24;8.90;99.90
5304;DHT22;2674;49.722;10.892;2024-03-08T11:22:01;9.00;99.90
5304;DHT22;2674;49.722;10.892;2024-03-08T11:24:36;9.10;99.90
5304;DHT22;2674;49.722;10.892;2024-03-08T11:27:03;9.20;99.90
5304;DHT22;2674;49.722;10.892;2024-03-08T11:32:17;9.60;99.90
5304;DHT22;2674;49.722;10.892;2024-03-08T11:34:48;9.60;99.90
5304;DHT22;2674;49.722;10.892;2024-03-08T11:37:17;9.60;99.90
5304;DHT22;2674;49.722;10.892;2024-03-08T11:39:54;9.60;99.90
5304;DHT22;2674;49.722;10.892;2024-03-08T11:42:28;9.60;99.90
5304;DHT22;2674;49.722;10.892;2024-03-08T11:44:54;9.60;99.90
5304;DHT22;2674;49.722;10.892;2024-03-08T11:47:21;9.80;99.90
5304;DHT22;2674;49.722;10.892;2024-03-08T11:49:47;9.80;99.90
5304;DHT22;2674;49.722;10.892;2024-03-08T11:52:18;9.90;99.90
5304;DHT22;2674;49.722;10.892;2024-03-08T11:54:54;9.90;99.90
5304;DHT22;2674;49.722;10.892;2024-03-08T11:57:25;9.90;99.90
5304;DHT22;2674;49.722;10.892;2024-03-08T11:59:55;9.90;99.90
5304;DHT22;2674;49.722;10.892;2024-03-08T12:02:24;9.90;99.90
5304;DHT22;2674;49.722;10.892;2024-03-08T12:04:57;9.90;99.90
5304;DHT22;2674;49.722;10.892;2024-03-08T12:07:26;10.10;99.90
5304;DHT22;2674;49.722;10.892;2024-03-08T12:10:19;10.20;99.90
5304;DHT22;2674;49.722;10.892;2024-03-08T12:12:46;10.30;99.90
5304;DHT22;2674;49.722;10.892;2024-03-08T12:15:16;10.30;99.90
5304;DHT22;2674;49.722;10.892;2024-03-08T12:17:44;10.30;99.90
5304;DHT22;2674;49.722;10.892;2024-03-08T12:20:40;10.50;99.90
5304;DHT22;2674;49.722;10.892;2024-03-08T12:23:14;10.40;99.90
5304;DHT22;2674;49.722;10.892;2024-03-08T12:25:41;10.50;99.90
5304;DHT22;2674;49.722;10.892;2024-03-08T12:28:13;10.60;99.90
5304;DHT22;2674;49.722;10.892;2024-03-08T12:30:50;10.70;99.90
5304;DHT22;2674;49.722;10.892;2024-03-08T12:33:20;10.80;99.90
5304;DHT22;2674;49.722;10.892;2024-03-08T12:35:53;10.70;99.90
5304;DHT22;2674;49.722;10.892;2024-03-08T12:38:23;10.60;99.90
5304;DHT22;2674;49.722;10.892;2024-03-08T12:40:55;10.50;99.90
5304;DHT22;2674;49.722;10.892;2024-03-08T12:43:22;10.70;99.90
5304;DHT22;2674;49.722;10.892;2024-03-08T12:45:48;10.70;99.90
5304;DHT22;2674;49.722;10.892;2024-03-08T12:48:14;10.70;99.90
5304;DHT22;2674;49.722;10.892;2024-03-08T12:50:41;10.70;99.90
5304;DHT22;2674;49.722;10.892;2024-03-08T12:53:10;10.70;99.90
5304;DHT22;2674;49.722;10.892;2024-03-08T12:55:36;10.80;99.90
5304;DHT22;2674;49.722;10.892;2024-03-08T12:58:02;10.80;99.90
5304;DHT22;2674;49.722;10.892;2024-03-08T13:00:29;10.90;99.90
5304;DHT22;2674;49.722;10.892;2024-03-08T13:02:54;10.80;99.90
5304;DHT22;2674;49.722;10.892;2024-03-08T13:05:21;10.80;99.90
5304;DHT22;2674;49.722;10.892;2024-03-08T13:07:47;10.80;99.90
5304;DHT22;2674;49.722;10.892;2024-03-08T13:10:16;10.90;99.90
5304;DHT22;2674;49.722;10.892;2024-03-08T13:12:42;10.90;99.90
5304;DHT22;2674;49.722;10.892;2024-03-08T13:15:09;11.00;99.90
5304;DHT22;2674;49.722;10.892;2024-03-08T13:17:37;10.90;99.90
5304;DHT22;2674;49.722;10.892;2024-03-08T13:20:07;10.90;99.90
5304;DHT22;2674;49.722;10.892;2024-03-08T13:22:33;10.90;99.90
5304;DHT22;2674;49.722;10.892;2024-03-08T13:24:59;10.90;99.90
5304;DHT22;2674;49.722;10.892;2024-03-08T13:27:29;11.00;99.90
5304;DHT22;2674;49.722;10.892;2024-03-08T13:29:55;11.10;99.90
5304;DHT22;2674;49.722;10.892;2024-03-08T13:32:21;11.00;99.90
5304;DHT22;2674;49.722;10.892;2024-03-08T13:34:48;11.10;99.90
5304;DHT22;2674;49.722;10.892;2024-03-08T13:37:16;11.10;99.90
5304;DHT22;2674;49.722;10.892;2024-03-08T13:39:42;11.20;99.90
5304;DHT22;2674;49.722;10.892;2024-03-08T13:42:14;11.10;99.90
5304;DHT22;2674;49.722;10.892;2024-03-08T13:44:48;11.10;99.90
5304;DHT22;2674;49.722;10.892;2024-03-08T13:47:18;11.20;99.90
5304;DHT22;2674;49.722;10.892;2024-03-08T13:49:45;11.20;99.90
5304;DHT22;2674;49.722;10.892;2024-03-08T13:52:11;11.30;99.90
5304;DHT22;2674;49.722;10.892;2024-03-08T13:54:40;11.30;99.90
5304;DHT22;2674;49.722;10.892;2024-03-08T13:57:07;11.30;99.90
5304;DHT22;2674;49.722;10.892;2024-03-08T13:59:33;11.20;99.90
5304;DHT22;2674;49.722;10.892;2024-03-08T14:02:01;11.00;99.90
5304;DHT22;2674;49.722;10.892;2024-03-08T14:04:30;11.10;99.90
5304;DHT22;2674;49.722;10.892;2024-03-08T14:06:56;11.10;99.90
5304;DHT22;2674;49.722;10.892;2024-03-08T14:09:26;11.20;99.90
5304;DHT22;2674;49.722;10.892;2024-03-08T14:11:55;11.20;99.90
5304;DHT22;2674;49.722;10.892;2024-03-08T14:14:24;11.20;99.90
5304;DHT22;2674;49.722;10.892;2024-03-08T14:16:50;11.20;99.90
5304;DHT22;2674;49.722;10.892;2024-03-08T14:19:20;11.20;99.90
5304;DHT22;2674;49.722;10.892;2024-03-08T14:21:47;11.30;99.90
5304;DHT22;2674;49.722;10.892;2024-03-08T14:24:19;11.30;99.90
5304;DHT22;2674;49.722;10.892;2024-03-08T14:26:45;11.30;99.90
5304;DHT22;2674;49.722;10.892;2024-03-08T14:29:14;11.20;99.90
5304;DHT22;2674;49.722;10.892;2024-03-08T14:31:40;11.20;99.90
5304;DHT22;2674;49.722;10.892;2024-03-08T14:34:07;11.20;99.90
5304;DHT22;2674;49.722;10.892;2024-03-08T14:36:34;11.20;99.90
5304;DHT22;2674;49.722;10.892;2024-03-08T14:39:00;11.30;99.90
5304;DHT22;2674;49.722;10.892;2024-03-08T14:41:26;11.20;99.90
5304;DHT22;2674;49.722;10.892;2024-03-08T14:43:52;11.20;99.90
5304;DHT22;2674;49.722;10.892;2024-03-08T14:46:19;11.20;99.90
5304;DHT22;2674;49.722;10.892;2024-03-08T14:48:53;11.20;99.90
5304;DHT22;2674;49.722;10.892;2024-03-08T14:51:19;11.30;99.90
5304;DHT22;2674;49.722;10.892;2024-03-08T14:53:52;11.20;99.90
5304;DHT22;2674;49.722;10.892;2024-03-08T14:56:18;11.20;99.90
5304;DHT22;2674;49.722;10.892;2024-03-08T14:58:47;11.20;99.90
5304;DHT22;2674;49.722;10.892;2024-03-08T15:01:15;11.20;99.90
5304;DHT22;2674;49.722;10.892;2024-03-08T15:03:44;11.40;99.90
5304;DHT22;2674;49.722;10.892;2024-03-08T15:06:10;11.40;99.90
5304;DHT22;2674;49.722;10.892;2024-03-08T15:08:39;11.50;99.90
5304;DHT22;2674;49.722;10.892;2024-03-08T15:11:05;11.40;99.90
5304;DHT22;2674;49.722;10.892;2024-03-08T15:13:32;11.40;99.90
5304;DHT22;2674;49.722;10.892;2024-03-08T15:16:10;11.50;99.90
5304;DHT22;2674;49.722;10.892;2024-03-08T15:18:44;11.50;99.90
5304;DHT22;2674;49.722;10.892;2024-03-08T15:21:13;11.40;99.90
5304;DHT22;2674;49.722;10.892;2024-03-08T15:23:43;11.40;99.90
5304;DHT22;2674;49.722;10.892;2024-03-08T15:26:15;11.40;99.90
5304;DHT22;2674;49.722;10.892;2024-03-08T15:28:42;11.30;99.90
5304;DHT22;2674;49.722;10.892;2024-03-08T15:31:10;11.20;99.90
5304;DHT22;2674;49.722;10.892;2024-03-08T15:33:37;11.10;99.90
5304;DHT22;2674;49.722;10.892;2024-03-08T15:36:17;11.10;99.90
5304;DHT22;2674;49.722;10.892;2024-03-08T15:38:46;11.10;99.90
5304;DHT22;2674;49.722;10.892;2024-03-08T15:41:13;11.00;99.90
5304;DHT22;2674;49.722;10.892;2024-03-08T15:43:42;11.00;99.90
5304;DHT22;2674;49.722;10.892;2024-03-08T15:46:08;10.90;99.90
5304;DHT22;2674;49.722;10.892;2024-03-08T15:48:36;10.90;99.90
5304;DHT22;2674;49.722;10.892;2024-03-08T15:51:05;10.80;99.90
5304;DHT22;2674;49.722;10.892;2024-03-08T15:53:35;10.70;99.90
5304;DHT22;2674;49.722;10.892;2024-03-08T15:56:05;10.60;99.90
5304;DHT22;2674;49.722;10.892;2024-03-08T15:58:35;10.50;99.90
5304;DHT22;2674;49.722;10.892;2024-03-08T16:01:04;10.40;99.90
5304;DHT22;2674;49.722;10.892;2024-03-08T16:03:33;10.30;99.90
5304;DHT22;2674;49.722;10.892;2024-03-08T16:05:59;10.40;99.90
5304;DHT22;2674;49.722;10.892;2024-03-08T16:08:25;10.30;99.90
5304;DHT22;2674;49.722;10.892;2024-03-08T16:10:52;10.20;99.90